Terminal Aerodrome Forecast
Issued by NWS

Home | Current Version | Previous Version | Text Only | Print | Product List | Glossary Off
Versions: 1 2 3 4 5 6 7 8 9 10 11 12 13 14 15

852
FTUS43 KICT 140520
TAFRSL
TAF
KRSL 140520Z 1406/1506 17006KT P6SM FEW100 BKN200
     FM140900 20006KT P6SM SCT100 BKN200
     FM142000 17012G21KT P6SM SCT150=

USA.gov is the U.S. government's official web portal to all federal, state and local government web resources and services.